Time,TemperatureF,DewpointF,PressureIn,WindDirection,WindDirectionDegrees,WindSpeedMPH,WindSpeedGustMPH,Humidity,HourlyPrecipIn,Conditions,Clouds,dailyrainin,SolarRadiationWatts/m^2,SoftwareType,DateUTC
2013-06-04 00:03:00,65.0,58.0,30.08,NNE,16,7.0,11.0,79,0.00,,,0.00,0.000000,,2013-06-04 04:03:00,
2013-06-04 00:10:00,64.0,58.0,30.08,NNE,16,6.0,12.0,80,0.00,,,0.00,0.000000,,2013-06-04 04:10:00,
2013-06-04 00:33:00,64.0,58.0,30.08,NNE,16,6.0,12.0,80,0.00,,,0.00,0.000000,,2013-06-04 04:33:00,
2013-06-04 00:42:00,64.0,58.0,30.08,NNE,16,6.0,12.0,80,0.00,,,0.00,0.000000,,2013-06-04 04:42:00,
2013-06-04 00:53:00,64.0,58.0,30.08,NNE,16,6.0,12.0,80,0.00,,,0.00,0.000000,,2013-06-04 04:53:00,
2013-06-04 01:02:00,64.0,58.0,30.08,NNE,16,6.0,12.0,80,0.00,,,0.00,0.000000,,2013-06-04 05:02:00,
2013-06-04 01:10:00,64.0,57.0,30.08,NNE,12,6.0,10.0,77,0.00,,,0.00,0.000000,,2013-06-04 05:10:00,
2013-06-04 01:32:00,64.0,57.0,30.08,NNE,12,6.0,10.0,77,0.00,,,0.00,0.000000,,2013-06-04 05:32:00,
2013-06-04 01:42:00,64.0,57.0,30.08,NNE,12,6.0,10.0,77,0.00,,,0.00,0.000000,,2013-06-04 05:42:00,
2013-06-04 01:52:00,64.0,57.0,30.08,NNE,12,6.0,10.0,77,0.00,,,0.00,0.000000,,2013-06-04 05:52:00,
2013-06-04 02:02:00,64.0,57.0,30.08,NNE,12,6.0,10.0,77,0.00,,,0.00,0.000000,,2013-06-04 06:02:00,
2013-06-04 02:10:00,63.0,57.0,30.08,NNE,18,5.0,10.0,80,0.00,,,0.00,0.000000,,2013-06-04 06:10:00,
2013-06-04 02:32:00,63.0,57.0,30.08,NNE,18,5.0,10.0,80,0.00,,,0.00,0.000000,,2013-06-04 06:32:00,
2013-06-04 02:42:00,63.0,57.0,30.08,NNE,18,5.0,10.0,80,0.00,,,0.00,0.000000,,2013-06-04 06:42:00,
2013-06-04 02:52:00,63.0,57.0,30.08,NNE,18,5.0,10.0,80,0.00,,,0.00,0.000000,,2013-06-04 06:52:00,
2013-06-04 03:02:00,63.0,57.0,30.08,NNE,18,5.0,10.0,80,0.00,,,0.00,0.000000,,2013-06-04 07:02:00,
2013-06-04 03:10:00,61.0,55.0,30.07,NNE,14,6.0,10.0,82,0.00,,,0.00,0.000000,,2013-06-04 07:10:00,
2013-06-04 03:32:00,61.0,55.0,30.07,NNE,14,6.0,10.0,82,0.00,,,0.00,0.000000,,2013-06-04 07:32:00,
2013-06-04 03:42:00,61.0,55.0,30.07,NNE,14,6.0,10.0,82,0.00,,,0.00,0.000000,,2013-06-04 07:42:00,
2013-06-04 03:52:00,61.0,55.0,30.07,NNE,14,6.0,10.0,82,0.00,,,0.00,0.000000,,2013-06-04 07:52:00,
2013-06-04 04:02:00,61.0,55.0,30.07,NNE,14,6.0,10.0,82,0.00,,,0.00,0.000000,,2013-06-04 08:02:00,
2013-06-04 04:10:00,63.0,57.0,30.06,NNE,15,7.0,10.0,81,0.00,,,0.00,0.000000,,2013-06-04 08:10:00,
2013-06-04 04:32:00,63.0,57.0,30.06,NNE,15,7.0,10.0,81,0.00,,,0.00,0.000000,,2013-06-04 08:32:00,
2013-06-04 04:42:00,63.0,57.0,30.06,NNE,15,7.0,10.0,81,0.00,,,0.00,0.000000,,2013-06-04 08:42:00,
2013-06-04 04:52:00,63.0,57.0,30.06,NNE,15,7.0,10.0,81,0.00,,,0.00,0.000000,,2013-06-04 08:52:00,
2013-06-04 05:02:00,63.0,57.0,30.06,NNE,15,7.0,10.0,81,0.00,,,0.00,0.000000,,2013-06-04 09:02:00,
2013-06-04 05:10:00,62.0,55.0,30.08,NNE,20,5.0,11.0,77,0.00,,,0.00,0.000000,,2013-06-04 09:10:00,
2013-06-04 05:33:00,62.0,55.0,30.08,NNE,20,5.0,11.0,77,0.00,,,0.00,0.000000,,2013-06-04 09:33:00,
2013-06-04 05:43:00,62.0,55.0,30.08,NNE,20,5.0,11.0,77,0.00,,,0.00,0.000000,,2013-06-04 09:43:00,
2013-06-04 05:53:00,62.0,55.0,30.08,NNE,20,5.0,11.0,77,0.00,,,0.00,0.000000,,2013-06-04 09:53:00,
2013-06-04 06:03:00,62.0,55.0,30.08,NNE,20,5.0,11.0,77,0.00,,,0.00,0.000000,,2013-06-04 10:03:00,
2013-06-04 06:10:00,61.0,55.0,30.09,NNE,17,6.0,8.0,81,0.00,,,0.00,0.000000,,2013-06-04 10:10:00,
2013-06-04 06:33:00,61.0,55.0,30.09,NNE,17,6.0,8.0,81,0.00,,,0.00,0.000000,,2013-06-04 10:33:00,
2013-06-04 06:42:00,61.0,55.0,30.09,NNE,17,6.0,8.0,81,0.00,,,0.00,0.000000,,2013-06-04 10:42:00,
2013-06-04 06:53:00,61.0,55.0,30.09,NNE,17,6.0,8.0,81,0.00,,,0.00,0.000000,,2013-06-04 10:53:00,
2013-06-04 07:02:00,61.0,55.0,30.09,NNE,17,6.0,8.0,81,0.00,,,0.00,0.000000,,2013-06-04 11:02:00,
2013-06-04 07:10:00,61.0,55.0,30.10,North,9,7.0,12.0,82,0.00,,,0.00,0.000000,,2013-06-04 11:10:00,
2013-06-04 07:32:00,61.0,55.0,30.10,North,9,7.0,12.0,82,0.00,,,0.00,0.000000,,2013-06-04 11:32:00,
2013-06-04 07:43:00,61.0,55.0,30.10,North,9,7.0,12.0,82,0.00,,,0.00,0.000000,,2013-06-04 11:43:00,
2013-06-04 07:52:00,61.0,55.0,30.10,North,9,7.0,12.0,82,0.00,,,0.00,0.000000,,2013-06-04 11:52:00,
2013-06-04 08:02:00,61.0,55.0,30.10,North,9,7.0,12.0,82,0.00,,,0.00,0.000000,,2013-06-04 12:02:00,
2013-06-04 08:10:00,63.0,57.0,30.12,NNE,15,5.0,11.0,80,0.00,,,0.00,5.000000,,2013-06-04 12:10:00,
2013-06-04 08:32:00,63.0,57.0,30.12,NNE,15,5.0,11.0,80,0.00,,,0.00,5.000000,,2013-06-04 12:32:00,
2013-06-04 08:42:00,63.0,57.0,30.12,NNE,15,5.0,11.0,80,0.00,,,0.00,5.000000,,2013-06-04 12:42:00,
2013-06-04 08:53:00,63.0,57.0,30.12,NNE,15,5.0,11.0,80,0.00,,,0.00,5.000000,,2013-06-04 12:53:00,
2013-06-04 09:03:00,63.0,57.0,30.12,NNE,15,5.0,11.0,80,0.00,,,0.00,5.000000,,2013-06-04 13:03:00,
2013-06-04 09:10:00,64.0,56.0,30.16,ENE,63,3.0,7.0,76,0.00,,,0.00,26.000000,,2013-06-04 13:10:00,
2013-06-04 09:32:00,64.0,56.0,30.16,ENE,63,3.0,7.0,76,0.00,,,0.00,26.000000,,2013-06-04 13:32:00,
2013-06-04 09:42:00,64.0,56.0,30.16,ENE,63,3.0,7.0,76,0.00,,,0.00,26.000000,,2013-06-04 13:42:00,
2013-06-04 09:52:00,64.0,56.0,30.16,ENE,63,3.0,7.0,76,0.00,,,0.00,26.000000,,2013-06-04 13:52:00,
2013-06-04 10:02:00,64.0,56.0,30.16,ENE,63,3.0,7.0,76,0.00,,,0.00,26.000000,,2013-06-04 14:02:00,
2013-06-04 10:10:00,65.0,59.0,30.16,North,10,4.0,8.0,81,0.00,,,0.00,47.000000,,2013-06-04 14:10:00,
2013-06-04 10:32:00,65.0,59.0,30.16,North,10,4.0,8.0,81,0.00,,,0.00,47.000000,,2013-06-04 14:32:00,
2013-06-04 10:43:00,65.0,59.0,30.16,North,10,4.0,8.0,81,0.00,,,0.00,47.000000,,2013-06-04 14:43:00,
2013-06-04 10:52:00,65.0,59.0,30.16,North,10,4.0,8.0,81,0.00,,,0.00,47.000000,,2013-06-04 14:52:00,
2013-06-04 11:02:00,65.0,59.0,30.16,North,10,4.0,8.0,81,0.00,,,0.00,47.000000,,2013-06-04 15:02:00,
2013-06-04 11:10:00,67.0,59.0,30.17,NNE,18,3.0,8.0,76,0.00,,,0.00,149.000000,,2013-06-04 15:10:00,
2013-06-04 11:33:00,67.0,59.0,30.17,NNE,18,3.0,8.0,76,0.00,,,0.00,149.000000,,2013-06-04 15:33:00,
2013-06-04 11:42:00,67.0,59.0,30.17,NNE,18,3.0,8.0,76,0.00,,,0.00,149.000000,,2013-06-04 15:42:00,
2013-06-04 11:53:00,67.0,59.0,30.17,NNE,18,3.0,8.0,76,0.00,,,0.00,149.000000,,2013-06-04 15:53:00,
2013-06-04 12:03:00,67.0,59.0,30.17,NNE,18,3.0,8.0,76,0.00,,,0.00,149.000000,,2013-06-04 16:03:00,
2013-06-04 12:10:00,67.0,59.0,30.18,South,182,2.0,12.0,76,0.00,,,0.00,305.000000,,2013-06-04 16:10:00,
2013-06-04 12:33:00,67.0,59.0,30.18,South,182,2.0,12.0,76,0.00,,,0.00,305.000000,,2013-06-04 16:33:00,
2013-06-04 12:42:00,67.0,59.0,30.18,South,182,2.0,12.0,76,0.00,,,0.00,305.000000,,2013-06-04 16:42:00,
2013-06-04 12:53:00,67.0,59.0,30.18,South,182,2.0,12.0,76,0.00,,,0.00,305.000000,,2013-06-04 16:53:00,
2013-06-04 13:03:00,67.0,59.0,30.18,South,182,2.0,12.0,76,0.00,,,0.00,305.000000,,2013-06-04 17:03:00,
2013-06-04 13:10:00,69.0,62.0,30.18,SW,230,2.0,9.0,79,0.00,,,0.00,327.000000,,2013-06-04 17:10:00,
2013-06-04 13:33:00,69.0,62.0,30.18,SW,230,2.0,9.0,79,0.00,,,0.00,327.000000,,2013-06-04 17:33:00,
2013-06-04 13:42:00,69.0,62.0,30.18,SW,230,2.0,9.0,79,0.00,,,0.00,327.000000,,2013-06-04 17:42:00,
2013-06-04 13:52:00,69.0,62.0,30.18,SW,230,2.0,9.0,79,0.00,,,0.00,327.000000,,2013-06-04 17:52:00,
2013-06-04 14:02:00,69.0,62.0,30.18,SW,230,2.0,9.0,79,0.00,,,0.00,327.000000,,2013-06-04 18:02:00,
2013-06-04 14:10:00,71.0,61.0,30.17,ESE,119,2.0,10.0,70,0.00,,,0.00,286.000000,,2013-06-04 18:10:00,
2013-06-04 14:32:00,71.0,61.0,30.17,ESE,119,2.0,10.0,70,0.00,,,0.00,286.000000,,2013-06-04 18:32:00,
2013-06-04 14:42:00,71.0,61.0,30.17,ESE,119,2.0,10.0,70,0.00,,,0.00,286.000000,,2013-06-04 18:42:00,
2013-06-04 14:53:00,71.0,61.0,30.17,ESE,119,2.0,10.0,70,0.00,,,0.00,286.000000,,2013-06-04 18:53:00,
2013-06-04 15:02:00,71.0,61.0,30.17,ESE,119,2.0,10.0,70,0.00,,,0.00,286.000000,,2013-06-04 19:02:00,
2013-06-04 15:10:00,74.0,61.0,30.17,SE,135,3.0,10.0,65,0.00,,,0.00,521.000000,,2013-06-04 19:10:00,
2013-06-04 15:33:00,74.0,61.0,30.17,SE,135,3.0,10.0,65,0.00,,,0.00,521.000000,,2013-06-04 19:33:00,
2013-06-04 15:42:00,74.0,61.0,30.17,SE,135,3.0,10.0,65,0.00,,,0.00,521.000000,,2013-06-04 19:42:00,
2013-06-04 15:52:00,74.0,61.0,30.17,SE,135,3.0,10.0,65,0.00,,,0.00,521.000000,,2013-06-04 19:52:00,
2013-06-04 16:03:00,74.0,61.0,30.17,SE,135,3.0,10.0,65,0.00,,,0.00,521.000000,,2013-06-04 20:03:00,
2013-06-04 16:10:00,77.0,61.0,30.16,ENE,65,3.0,9.0,57,0.00,,,0.00,693.000000,,2013-06-04 20:10:00,
2013-06-04 16:32:00,77.0,61.0,30.16,ENE,65,3.0,9.0,57,0.00,,,0.00,693.000000,,2013-06-04 20:32:00,
2013-06-04 16:42:00,77.0,61.0,30.16,ENE,65,3.0,9.0,57,0.00,,,0.00,693.000000,,2013-06-04 20:42:00,
2013-06-04 16:53:00,77.0,61.0,30.16,ENE,65,3.0,9.0,57,0.00,,,0.00,693.000000,,2013-06-04 20:53:00,
2013-06-04 17:02:00,77.0,61.0,30.16,ENE,65,3.0,9.0,57,0.00,,,0.00,693.000000,,2013-06-04 21:02:00,
2013-06-04 17:10:00,76.0,59.0,30.15,SE,144,6.0,13.0,55,0.00,,,0.00,835.000000,,2013-06-04 21:10:00,
2013-06-04 17:33:00,76.0,59.0,30.15,SE,144,6.0,13.0,55,0.00,,,0.00,835.000000,,2013-06-04 21:33:00,
2013-06-04 17:42:00,76.0,59.0,30.15,SE,144,6.0,13.0,55,0.00,,,0.00,835.000000,,2013-06-04 21:42:00,
2013-06-04 17:53:00,76.0,59.0,30.15,SE,144,6.0,13.0,55,0.00,,,0.00,835.000000,,2013-06-04 21:53:00,
2013-06-04 18:02:00,76.0,59.0,30.15,SE,144,6.0,13.0,55,0.00,,,0.00,835.000000,,2013-06-04 22:02:00,
2013-06-04 18:10:00,76.0,58.0,30.14,SSE,156,3.0,8.0,54,0.00,,,0.00,927.000000,,2013-06-04 22:10:00,
2013-06-04 18:33:00,76.0,58.0,30.14,SSE,156,3.0,8.0,54,0.00,,,0.00,927.000000,,2013-06-04 22:33:00,
2013-06-04 18:42:00,76.0,58.0,30.14,SSE,156,3.0,8.0,54,0.00,,,0.00,927.000000,,2013-06-04 22:42:00,
2013-06-04 18:52:00,76.0,58.0,30.14,SSE,156,3.0,8.0,54,0.00,,,0.00,927.000000,,2013-06-04 22:52:00,
2013-06-04 19:02:00,76.0,58.0,30.14,SSE,156,3.0,8.0,54,0.00,,,0.00,927.000000,,2013-06-04 23:02:00,
2013-06-04 19:10:00,72.0,55.0,30.14,East,81,3.0,11.0,56,0.00,,,0.00,418.000000,,2013-06-04 23:10:00,
2013-06-04 19:32:00,72.0,55.0,30.14,East,81,3.0,11.0,56,0.00,,,0.00,418.000000,,2013-06-04 23:32:00,
2013-06-04 19:42:00,72.0,55.0,30.14,East,81,3.0,11.0,56,0.00,,,0.00,418.000000,,2013-06-04 23:42:00,
2013-06-04 19:52:00,72.0,55.0,30.14,East,81,3.0,11.0,56,0.00,,,0.00,418.000000,,2013-06-04 23:52:00,
2013-06-04 20:02:00,72.0,55.0,30.14,East,81,3.0,11.0,56,0.00,,,0.00,418.000000,,2013-06-05 00:02:00,
2013-06-04 20:10:00,68.0,58.0,30.16,ESE,102,2.0,6.0,70,0.00,,,0.00,388.000000,,2013-06-05 00:10:00,
2013-06-04 20:33:00,68.0,58.0,30.16,ESE,102,2.0,6.0,70,0.00,,,0.00,388.000000,,2013-06-05 00:33:00,
2013-06-04 20:42:00,68.0,58.0,30.16,ESE,102,2.0,6.0,70,0.00,,,0.00,388.000000,,2013-06-05 00:42:00,
2013-06-04 20:52:00,68.0,58.0,30.16,ESE,102,2.0,6.0,70,0.00,,,0.00,388.000000,,2013-06-05 00:52:00,
2013-06-04 21:02:00,68.0,58.0,30.16,ESE,102,2.0,6.0,70,0.00,,,0.00,388.000000,,2013-06-05 01:02:00,
2013-06-04 21:10:00,65.0,58.0,30.17,West,279,1.0,8.0,78,0.00,,,0.00,136.000000,,2013-06-05 01:10:00,
2013-06-04 21:32:00,65.0,58.0,30.17,West,279,1.0,8.0,78,0.00,,,0.00,136.000000,,2013-06-05 01:32:00,
2013-06-04 21:42:00,65.0,58.0,30.17,West,279,1.0,8.0,78,0.00,,,0.00,136.000000,,2013-06-05 01:42:00,
2013-06-04 21:52:00,65.0,58.0,30.17,West,279,1.0,8.0,78,0.00,,,0.00,136.000000,,2013-06-05 01:52:00,
2013-06-04 22:02:00,65.0,58.0,30.17,West,279,1.0,8.0,78,0.00,,,0.00,136.000000,,2013-06-05 02:02:00,
2013-06-04 22:10:00,64.0,58.0,30.18,ENE,74,2.0,7.0,82,0.00,,,0.00,8.000000,,2013-06-05 02:10:00,
2013-06-04 22:32:00,64.0,58.0,30.18,ENE,74,2.0,7.0,82,0.00,,,0.00,8.000000,,2013-06-05 02:32:00,
2013-06-04 22:42:00,64.0,58.0,30.18,ENE,74,2.0,7.0,82,0.00,,,0.00,8.000000,,2013-06-05 02:42:00,
2013-06-04 22:52:00,64.0,58.0,30.18,ENE,74,2.0,7.0,82,0.00,,,0.00,8.000000,,2013-06-05 02:52:00,
2013-06-04 23:02:00,64.0,58.0,30.18,ENE,74,2.0,7.0,82,0.00,,,0.00,8.000000,,2013-06-05 03:02:00,
2013-06-04 23:10:00,64.0,58.0,30.20,ENE,61,3.0,8.0,81,0.00,,,0.00,0.000000,,2013-06-05 03:10:00,
2013-06-04 23:33:00,64.0,58.0,30.20,ENE,61,3.0,8.0,81,0.00,,,0.00,0.000000,,2013-06-05 03:33:00,
2013-06-04 23:43:00,64.0,58.0,30.20,ENE,61,3.0,8.0,81,0.00,,,0.00,0.000000,,2013-06-05 03:43:00,
2013-06-04 23:53:00,64.0,58.0,30.20,ENE,61,3.0,8.0,81,0.00,,,0.00,0.000000,,2013-06-05 03:53:00,